createdAt,value
2022-08-11T00:01:53.508Z,26.92
2022-08-11T00:04:24.526Z,26.86
2022-08-11T00:09:51.524Z,26.93
2022-08-11T00:12:22.289Z,26.78
2022-08-11T00:14:57.366Z,26.70
2022-08-11T00:17:31.498Z,26.96
2022-08-11T00:20:14.652Z,26.77
2022-08-11T00:22:47.578Z,27.00
2022-08-11T00:25:16.399Z,26.81
2022-08-11T00:27:43.951Z,26.92
2022-08-11T00:30:12.070Z,27.21
2022-08-11T00:32:41.677Z,27.17
2022-08-11T00:35:54.809Z,27.25
2022-08-11T00:38:08.072Z,27.43
2022-08-11T00:41:05.581Z,27.43
2022-08-11T00:44:17.760Z,27.48
2022-08-11T00:47:30.662Z,27.47
2022-08-11T00:50:21.542Z,27.40
2022-08-11T00:52:58.832Z,27.40
2022-08-11T00:56:13.494Z,27.35
2022-08-11T00:58:50.735Z,27.24
2022-08-11T01:01:43.216Z,27.46
2022-08-11T01:45:37.335Z,28.10
2022-08-11T01:48:27.270Z,27.82
2022-08-11T01:55:26.854Z,27.55
2022-08-11T01:58:11.630Z,27.61
2022-08-11T02:01:04.177Z,27.95
2022-08-11T02:04:09.910Z,28.08
2022-08-11T02:09:42.147Z,27.97
2022-08-11T02:12:26.664Z,27.21
2022-08-11T02:15:07.193Z,27.22
2022-08-11T02:17:57.839Z,27.01
2022-08-11T02:20:49.078Z,26.88
2022-08-11T02:23:59.625Z,26.25
2022-08-11T02:26:52.086Z,26.00
2022-08-11T02:29:24.457Z,26.05
2022-08-11T02:37:03.826Z,26.74
2022-08-11T02:39:40.884Z,27.06
2022-08-11T02:42:36.705Z,27.36
2022-08-11T02:49:05.863Z,27.49
2022-08-11T02:51:40.155Z,27.67
2022-08-11T02:54:21.517Z,27.79
2022-08-11T02:56:59.186Z,26.93
2022-08-11T02:59:53.330Z,27.30
2022-08-11T03:02:47.469Z,27.46
2022-08-11T04:37:34.369Z,27.10
2022-08-11T04:40:11.221Z,26.92
2022-08-11T04:43:24.100Z,26.83
2022-08-11T04:46:12.220Z,26.73
2022-08-11T04:49:06.826Z,26.81
2022-08-11T04:52:12.398Z,26.84
2022-08-11T04:55:07.820Z,26.90
2022-08-11T05:26:46.149Z,27.32
2022-08-11T05:29:53.538Z,27.35
2022-08-11T05:32:39.605Z,27.47
2022-08-11T05:35:11.015Z,27.51
2022-08-11T05:38:16.795Z,27.57
2022-08-11T05:41:11.684Z,27.38
2022-08-11T05:44:20.005Z,27.47
2022-08-11T05:47:10.307Z,27.54
2022-08-11T05:49:59.137Z,27.53
2022-08-11T05:52:49.022Z,27.61
2022-08-11T05:55:34.974Z,27.58
2022-08-11T05:58:25.833Z,27.65
2022-08-11T06:00:56.258Z,27.71
2022-08-11T06:03:28.098Z,27.65
2022-08-11T06:06:04.166Z,27.58
2022-08-11T06:08:36.004Z,27.28
2022-08-11T06:11:06.561Z,27.00
2022-08-11T06:13:36.498Z,26.94
2022-08-11T06:16:07.013Z,27.15
2022-08-11T06:18:35.184Z,27.36
2022-08-11T06:21:11.558Z,27.31
2022-08-11T06:23:40.576Z,27.23
2022-08-11T06:26:11.377Z,27.37
2022-08-11T06:28:42.019Z,27.39
2022-08-11T06:31:17.211Z,27.05
2022-08-11T06:33:50.584Z,27.25
2022-08-11T06:36:18.049Z,27.03
2022-08-11T06:39:00.632Z,27.09
2022-08-11T06:41:34.425Z,27.03
2022-08-11T06:44:13.851Z,27.28
2022-08-11T06:46:47.579Z,27.45
2022-08-11T06:49:34.689Z,27.33
2022-08-11T06:52:35.706Z,27.48
2022-08-11T07:04:07.512Z,27.86
2022-08-11T07:07:16.602Z,27.82
2022-08-11T07:10:24.052Z,27.74
2022-08-11T07:13:44.480Z,27.85
2022-08-11T07:16:13.309Z,27.90
2022-08-11T07:18:59.866Z,28.22
2022-08-11T07:22:02.435Z,28.50
2022-08-11T07:25:02.257Z,28.49
2022-08-11T07:27:50.572Z,28.52
2022-08-11T07:30:23.771Z,28.67
2022-08-11T07:32:53.682Z,28.66
2022-08-11T07:35:24.975Z,28.74
2022-08-11T07:38:20.653Z,28.66
2022-08-11T07:40:52.899Z,28.42
2022-08-11T07:43:20.634Z,28.68
2022-08-11T07:46:06.562Z,28.91
2022-08-11T07:48:52.548Z,29.16
2022-08-11T07:51:38.536Z,29.20
2022-08-11T07:54:16.609Z,28.69
2022-08-11T07:56:55.348Z,28.64
2022-08-11T07:59:57.537Z,28.93
2022-08-11T08:02:46.727Z,29.01
2022-08-11T08:05:33.006Z,29.11
2022-08-11T08:08:19.021Z,28.92
2022-08-11T08:11:05.082Z,28.61
2022-08-11T08:13:51.086Z,29.06
2022-08-11T08:16:38.022Z,29.31
2022-08-11T08:19:12.093Z,28.91
2022-08-11T08:21:39.306Z,29.03
2022-08-11T08:24:11.099Z,29.17
2022-08-11T08:26:57.063Z,29.15
2022-08-11T08:29:43.195Z,28.92
2022-08-11T08:32:11.247Z,28.73
2022-08-11T08:34:38.630Z,29.33
2022-08-11T08:37:15.804Z,29.44
2022-08-11T08:39:53.850Z,29.52
2022-08-11T08:42:24.912Z,29.09
2022-08-11T08:44:55.264Z,29.30
2022-08-11T08:47:41.803Z,29.40
2022-08-11T08:50:16.803Z,29.30
2022-08-11T08:52:46.980Z,29.53
2022-08-11T08:55:18.045Z,29.87
2022-08-11T08:57:45.587Z,29.96
2022-08-11T09:00:17.888Z,30.17
2022-08-11T09:02:53.464Z,30.39
2022-08-11T09:05:21.384Z,30.23
2022-08-11T09:07:51.306Z,29.95
2022-08-11T09:10:19.563Z,29.32
2022-08-11T09:12:46.933Z,30.00
2022-08-11T09:15:14.962Z,29.94
2022-08-11T09:17:52.551Z,29.31
2022-08-11T09:20:20.857Z,29.24
2022-08-11T09:24:06.827Z,29.31
2022-08-11T09:26:19.462Z,29.72
2022-08-11T09:28:50.181Z,29.82
2022-08-11T09:31:17.686Z,29.81
2022-08-11T09:33:46.213Z,30.40
2022-08-11T09:36:32.226Z,29.96
2022-08-11T09:39:18.963Z,29.66
2022-08-11T09:42:00.757Z,29.90
2022-08-11T09:44:52.291Z,30.45
2022-08-11T09:47:21.052Z,30.37
2022-08-11T09:49:51.671Z,30.04
2022-08-11T09:52:22.184Z,30.08
2022-08-11T09:54:50.007Z,29.82
2022-08-11T09:57:39.424Z,29.80
2022-08-11T10:00:13.309Z,29.80
2022-08-11T10:02:45.450Z,30.00
2022-08-11T10:05:41.999Z,29.79
2022-08-11T10:08:12.541Z,29.80
2022-08-11T10:10:40.491Z,30.04
2022-08-11T10:14:32.010Z,30.37
2022-08-11T10:16:00.227Z,30.38
2022-08-11T10:18:51.518Z,30.63
2022-08-11T10:21:25.152Z,30.93
2022-08-11T10:24:12.010Z,30.75
2022-08-11T10:26:57.689Z,30.84
2022-08-11T10:29:49.744Z,31.16
2022-08-11T10:32:57.423Z,31.24
2022-08-11T10:35:32.484Z,30.57
2022-08-11T10:38:09.051Z,30.92
2022-08-11T10:41:07.138Z,30.45
2022-08-11T10:44:02.004Z,30.80
2022-08-11T10:46:42.479Z,30.68
2022-08-11T10:49:09.783Z,30.95
2022-08-11T10:51:57.655Z,30.63
2022-08-11T10:54:45.903Z,30.84
2022-08-11T10:57:32.988Z,30.94
2022-08-11T11:00:00.420Z,31.60
2022-08-11T11:02:27.772Z,32.36
2022-08-11T11:23:20.114Z,32.58
2022-08-11T11:26:11.876Z,33.64
2022-08-11T11:28:42.282Z,33.22
2022-08-11T11:31:22.362Z,34.29
2022-08-11T11:34:06.210Z,34.94
2022-08-11T11:36:39.780Z,36.13
2022-08-11T11:39:14.132Z,36.62
2022-08-11T11:42:10.686Z,37.44
2022-08-11T11:44:38.338Z,37.75
2022-08-11T11:47:05.796Z,35.42
2022-08-11T11:49:35.372Z,35.03
2022-08-11T11:52:03.837Z,36.49
2022-08-11T11:54:31.951Z,37.97
2022-08-11T12:00:33.913Z,37.15
2022-08-11T12:03:04.189Z,37.04
2022-08-11T12:06:03.430Z,38.57
2022-08-11T12:08:33.848Z,40.16
2022-08-11T12:11:24.360Z,40.07
2022-08-11T12:17:56.806Z,39.71
2022-08-11T12:20:31.885Z,39.67
2022-08-11T12:27:16.344Z,37.83
2022-08-11T12:29:47.448Z,38.66
2022-08-11T12:32:34.957Z,38.32
2022-08-11T12:35:02.520Z,36.57
2022-08-11T12:37:49.264Z,35.96
2022-08-11T12:41:11.733Z,36.36
2022-08-11T12:43:43.188Z,36.66
2022-08-11T12:46:15.998Z,39.96
2022-08-11T12:49:06.056Z,40.61
2022-08-11T12:52:12.859Z,38.87
2022-08-11T12:54:50.724Z,39.10
2022-08-11T12:57:45.774Z,39.76
2022-08-11T13:00:32.158Z,39.27
2022-08-11T13:03:19.971Z,39.35
2022-08-11T13:08:48.875Z,39.67
2022-08-11T13:11:56.428Z,40.30
2022-08-11T13:14:27.528Z,39.81
2022-08-11T13:17:17.020Z,39.82
2022-08-11T13:19:49.605Z,39.16
2022-08-11T13:22:24.304Z,39.68
2022-08-11T13:24:55.292Z,41.67
2022-08-11T13:27:22.978Z,41.64
2022-08-11T13:29:50.678Z,39.72
2022-08-11T13:32:18.283Z,39.04
2022-08-11T13:34:45.625Z,39.17
2022-08-11T13:37:15.347Z,37.74
2022-08-11T13:39:47.470Z,37.74
2022-08-11T13:42:16.229Z,38.88
2022-08-11T13:44:49.433Z,39.45
2022-08-11T13:47:16.665Z,37.63
2022-08-11T13:49:49.838Z,36.76
2022-08-11T13:52:22.138Z,36.51
2022-08-11T13:54:52.647Z,35.58
2022-08-11T13:58:09.115Z,35.45
2022-08-11T14:00:13.317Z,34.77
2022-08-11T14:02:55.524Z,34.00
2022-08-11T14:05:29.708Z,33.55
2022-08-11T14:08:00.555Z,33.76
2022-08-11T14:10:31.186Z,33.63
2022-08-11T14:13:19.366Z,32.60
2022-08-11T14:15:47.218Z,32.73
2022-08-11T14:18:18.226Z,32.74
2022-08-11T14:24:19.722Z,32.04
2022-08-11T14:26:51.356Z,32.08
2022-08-11T14:32:02.672Z,31.93
2022-08-11T14:38:35.768Z,31.74
2022-08-11T14:50:32.493Z,31.50
2022-08-11T16:21:06.793Z,31.10
2022-08-11T16:23:42.835Z,30.82
2022-08-11T16:27:10.130Z,30.75
2022-08-11T16:29:02.298Z,30.75
2022-08-11T16:31:33.250Z,30.63
2022-08-11T16:37:05.427Z,30.72
2022-08-11T16:39:33.247Z,30.72
2022-08-11T16:43:08.713Z,30.59
2022-08-11T16:45:31.975Z,30.55
2022-08-11T16:50:52.033Z,30.70
2022-08-11T16:53:54.581Z,30.65
2022-08-11T16:56:30.337Z,30.52
2022-08-11T16:59:22.424Z,30.64
2022-08-11T17:02:05.306Z,30.42
2022-08-11T17:05:00.899Z,30.42
2022-08-11T17:14:06.446Z,30.41
2022-08-11T17:20:43.642Z,30.41
2022-08-11T17:22:33.774Z,30.36
2022-08-11T17:25:04.141Z,30.35
2022-08-11T17:27:36.024Z,30.03
2022-08-11T17:30:05.981Z,30.20
2022-08-11T17:32:56.085Z,30.25
2022-08-11T17:35:31.646Z,30.07
2022-08-11T17:38:13.403Z,30.01
2022-08-11T17:41:02.556Z,29.89
2022-08-11T17:43:49.544Z,30.01
2022-08-11T17:46:37.010Z,30.03
2022-08-11T17:49:08.439Z,30.03
2022-08-11T17:51:58.870Z,30.11
2022-08-11T17:54:45.827Z,30.02
2022-08-11T17:58:10.093Z,30.17
2022-08-11T18:03:33.492Z,29.84
2022-08-11T18:09:34.801Z,29.78
2022-08-11T18:12:25.622Z,29.74
2022-08-11T18:15:13.095Z,29.67
2022-08-11T18:18:00.544Z,29.48
2022-08-11T18:20:46.754Z,29.69
2022-08-11T18:23:40.328Z,29.80
2022-08-11T18:26:37.023Z,29.93
2022-08-11T18:29:23.169Z,29.85
2022-08-11T18:32:20.741Z,29.90
2022-08-11T18:35:12.832Z,30.01
2022-08-11T18:38:02.849Z,29.95
2022-08-11T18:40:48.742Z,29.88
2022-08-11T18:43:35.503Z,29.36
2022-08-11T18:46:24.104Z,29.25
2022-08-11T18:49:15.544Z,29.32
2022-08-11T18:52:06.318Z,29.56
2022-08-11T18:54:54.128Z,29.33
2022-08-11T18:57:49.356Z,29.22
2022-08-11T19:00:40.765Z,29.29
2022-08-11T19:03:26.931Z,29.13
2022-08-11T19:06:41.124Z,29.21
2022-08-11T19:09:29.323Z,29.40
2022-08-11T19:12:18.375Z,29.44
2022-08-11T19:15:04.932Z,29.59
2022-08-11T19:17:51.575Z,29.63
2022-08-11T19:20:40.001Z,29.75
2022-08-11T19:23:30.283Z,29.79
2022-08-11T19:26:16.700Z,29.64
2022-08-11T19:29:03.363Z,29.44
2022-08-11T19:31:49.702Z,29.46
2022-08-11T19:34:36.712Z,29.40
2022-08-11T19:37:25.463Z,29.35
2022-08-11T19:40:12.624Z,29.56
2022-08-11T19:42:59.296Z,29.55
2022-08-11T19:45:45.895Z,29.64
2022-08-11T19:48:41.491Z,29.72
2022-08-11T19:51:28.001Z,29.72
2022-08-11T19:54:14.467Z,29.51
2022-08-11T19:57:04.351Z,29.64
2022-08-11T19:59:50.590Z,29.56
2022-08-11T20:02:38.346Z,29.59
2022-08-11T20:05:25.541Z,29.60
2022-08-11T20:08:10.215Z,29.64
2022-08-11T20:10:56.257Z,29.53
2022-08-11T20:13:42.673Z,29.67
2022-08-11T20:16:30.201Z,29.81
2022-08-11T20:19:17.037Z,29.67
2022-08-11T20:22:07.883Z,29.75
2022-08-11T20:24:57.509Z,29.64
2022-08-11T20:27:44.477Z,29.57
2022-08-11T20:30:30.578Z,29.42
2022-08-11T20:33:16.460Z,29.42
2022-08-11T20:36:03.947Z,29.05
2022-08-11T20:38:50.644Z,29.44
2022-08-11T20:41:58.188Z,29.26
2022-08-11T20:44:43.459Z,28.93
2022-08-11T20:47:30.684Z,29.00
2022-08-11T20:50:19.524Z,29.04
2022-08-11T20:53:06.505Z,29.23
2022-08-11T20:55:53.713Z,29.24
2022-08-11T21:01:51.981Z,29.45
2022-08-11T21:04:55.086Z,29.60
2022-08-11T21:07:58.854Z,29.74
2022-08-11T21:10:46.975Z,29.77
2022-08-11T21:13:34.265Z,29.81
2022-08-11T21:16:27.422Z,29.68
2022-08-11T21:19:55.184Z,29.50
2022-08-11T21:22:29.279Z,29.45
2022-08-11T21:25:17.072Z,29.49
2022-08-11T21:28:04.191Z,29.44
2022-08-11T21:30:57.496Z,29.15
2022-08-11T21:33:46.134Z,29.17
2022-08-11T21:36:32.129Z,29.12
2022-08-11T21:39:20.612Z,28.89
2022-08-11T21:42:12.531Z,28.54
2022-08-11T21:44:59.036Z,27.93
2022-08-11T21:47:46.837Z,28.18
2022-08-11T21:50:34.297Z,28.05
2022-08-11T21:53:20.312Z,27.87
2022-08-11T21:56:10.454Z,26.59
2022-08-11T21:58:57.277Z,25.89
2022-08-11T22:01:48.627Z,25.47
2022-08-11T23:35:39.254Z,26.70
2022-08-11T23:42:59.417Z,26.30
2022-08-11T23:45:45.550Z,26.59
2022-08-11T23:57:04.780Z,26.57
